Aérodrome :
LOGIN :

S'inscrire | Disclaimer

   EN    FR    IT 

 










Légende :    VFR   VFR Marginal   IFR   IFR Intensif   IFR Très Intensif
Visi : 
Plafond : 
>= 8 km
>= 3000ft
5 à 8 km
1000 à 3000 ft
1500m à 5 km
500 à 1000 ft
800 à 1500m
200 à 500 ft
< 800m
< 200 ft
Symboles :   Orages  Brouillard  Fortes neiges  Fortes précipitations  Vent > 20 kt
SIGMETs :   Divers  Orages  Givrage  Turbulence  Onde Orograph.  Cendres Volcan.






- Altitude de l'aérodrome : -11 ft
- Code IATA : AMS


EHAM - Amsterdam Schiphol

DERNIER METAR :
  • 260455Z 34007KT 9999 FEW010 08/08 Q0997 NOSIG

METARs EXPIRÉS :
  • 260425Z 35007KT 310V030 9999 FEW010 09/08 Q0996 NOSIG
  • 260355Z 35007KT 310V030 9999 FEW010 10/08 Q0996 NOSIG
  • 260325Z 34009KT 320V020 9999 FEW009 10/09 Q0996 NOSIG
  • 260255Z 36008KT 320V040 9999 FEW009 SCT026 10/09 Q0996 NOSIG
  • 260225Z 36008KT 330V030 9999 FEW008 BKN028 11/09 Q0995 NOSIG

TAF TAF EHAM
Valide du 26 à 00h jusqu'au 27 à 06h UTC


252323Z 2600/2706 34006KT 9999 BKN022
PROB40
TEMPO 2600/2602 7000 BKN008
BECMG 2615/2618 35015KT 7000 -RA
PROB30
TEMPO 2616/2619 4000 RA -SHRA BKN018 FEW022CB
BECMG 2622/2701 SCT007 BKN012
PROB40
TEMPO 2703/2706 4000 RADZ BKN007



MET'MAP, la Météo Aéronautique d'un coup d'oeil ! - Copyright ORBIFLY Décembre 2007 - Disclaimer

ORBIFLY MET'MAP TEAM :

Programmation & Développement : Alexandra Zaïnal
Sur une idée originale de : Baudouin d'Aumeries
Assistance à la programmation : Marc-Olivier Méhu
Soutien technique & logistique : Manuel Goepfert

Contact : metmap@orbifly.com




SOURCES & CREDITS :

   NOAA